Time;durP1;ratioP1;P1;durP2;ratioP2;P2;SDS_P1;SDS_P2;PMS_P1;PMS_P2;Temp;Humidity;BMP_temperature;BMP_pressure;BME280_temperature;BME280_humidity;BME280_pressure;Samples;Min_cycle;Max_cycle;Signal;HPM_P1;HPM_P2
2023/07/16 00:01:37;;;;;;;0.20;0.20;;;17.90;96.10;;;;;;5008309;28;20057;-82
2023/07/16 00:04:03;;;;;;;0.20;0.20;;;17.90;96.00;;;;;;5008750;28;20497;-82
2023/07/16 00:06:28;;;;;;;0.20;0.20;;;17.90;96.00;;;;;;5014937;28;20472;-82
2023/07/16 00:08:54;;;;;;;0.20;0.20;;;17.80;95.90;;;;;;5011465;28;20560;-81
2023/07/16 00:11:20;;;;;;;0.20;0.20;;;17.80;96.00;;;;;;5006299;28;20042;-83
2023/07/16 00:13:47;;;;;;;0.20;0.20;;;17.80;96.00;;;;;;5008702;28;20044;-82
2023/07/16 00:16:14;;;;;;;0.15;0.15;;;17.80;95.90;;;;;;5005640;28;20049;-81
2023/07/16 00:18:41;;;;;;;0.17;0.17;;;17.70;96.00;;;;;;5010370;28;20405;-82
2023/07/16 00:21:06;;;;;;;0.10;0.10;;;17.70;96.10;;;;;;5011695;28;20089;-82
2023/07/16 00:23:32;;;;;;;0.20;0.20;;;17.70;96.10;;;;;;5010430;28;20492;-81
2023/07/16 00:25:58;;;;;;;0.10;0.10;;;17.70;96.10;;;;;;5010731;28;20401;-80
2023/07/16 00:28:23;;;;;;;0.20;0.20;;;17.70;96.10;;;;;;5009831;28;20046;-82
2023/07/16 00:30:49;;;;;;;0.20;0.20;;;17.60;96.10;;;;;;5014445;28;20080;-83
2023/07/16 00:33:15;;;;;;;0.10;0.10;;;17.60;96.10;;;;;;5008625;28;20045;-82
2023/07/16 00:35:50;;;;;;;0.17;0.17;;;17.60;96.10;;;;;;5013784;28;20037;-82
2023/07/16 00:38:18;;;;;;;0.20;0.20;;;17.60;96.20;;;;;;5006711;28;20053;-83
2023/07/16 00:40:44;;;;;;;0.20;0.20;;;17.60;96.10;;;;;;5024069;28;20037;-82
2023/07/16 00:43:10;;;;;;;0.15;0.15;;;17.60;96.20;;;;;;5005113;28;20076;-82
2023/07/16 00:45:37;;;;;;;0.20;0.20;;;17.60;96.20;;;;;;5013076;28;20058;-81
2023/07/16 00:48:05;;;;;;;0.13;0.13;;;17.50;96.50;;;;;;5008588;28;20042;-83
2023/07/16 00:50:33;;;;;;;0.10;0.10;;;17.50;96.30;;;;;;5020996;28;20065;-82
2023/07/16 00:53:02;;;;;;;0.10;0.10;;;17.50;96.30;;;;;;5015962;28;20050;-82
2023/07/16 00:55:30;;;;;;;0.15;0.15;;;17.50;96.40;;;;;;5008003;28;20128;-83
2023/07/16 00:58:01;;;;;;;0.20;0.20;;;17.50;96.40;;;;;;5006626;28;20046;-82
2023/07/16 01:00:27;;;;;;;;;;;17.50;96.50;;;;;;5004568;28;20047;-83
2023/07/16 01:02:52;;;;;;;0.20;0.20;;;17.50;96.50;;;;;;5008408;28;19928;-84
2023/07/16 01:05:18;;;;;;;0.20;0.20;;;17.30;96.50;;;;;;5005862;28;20116;-82
2023/07/16 01:07:57;;;;;;;0.20;0.20;;;17.40;96.60;;;;;;5002090;28;20172;-84
2023/07/16 01:10:25;;;;;;;0.20;0.20;;;17.40;96.60;;;;;;5004335;28;20037;-82
2023/07/16 01:12:54;;;;;;;0.20;0.20;;;17.40;96.70;;;;;;5006007;28;20164;-84
2023/07/16 01:15:20;;;;;;;0.20;0.20;;;17.40;96.80;;;;;;5007250;28;20116;-83
2023/07/16 01:17:46;;;;;;;0.20;0.20;;;17.40;96.80;;;;;;5019594;28;20203;-83
2023/07/16 01:20:11;;;;;;;0.20;0.20;;;17.40;96.90;;;;;;5008512;28;20616;-81
2023/07/16 01:22:40;;;;;;;0.20;0.20;;;17.40;97.00;;;;;;5013450;28;20076;-83
2023/07/16 01:25:31;;;;;;;0.20;0.20;;;17.40;97.00;;;;;;5008844;28;20050;-81
2023/07/16 01:28:14;;;;;;;0.20;0.20;;;17.40;97.10;;;;;;5008258;28;20042;-84
2023/07/16 01:30:43;;;;;;;0.20;0.20;;;17.40;97.10;;;;;;5010592;28;20045;-82
2023/07/16 01:33:12;;;;;;;0.20;0.20;;;17.40;97.20;;;;;;5002413;28;20052;-83
2023/07/16 01:35:40;;;;;;;0.20;0.20;;;17.50;97.30;;;;;;5009198;28;20042;-82
2023/07/16 01:38:07;;;;;;;0.20;0.20;;;17.50;97.30;;;;;;5004353;28;20045;-81
2023/07/16 01:40:33;;;;;;;0.20;0.20;;;17.50;97.30;;;;;;5012786;28;20073;-83
2023/07/16 01:42:59;;;;;;;0.10;0.10;;;17.50;97.40;;;;;;5023425;28;20084;-81
2023/07/16 01:45:25;;;;;;;0.10;0.10;;;17.50;97.40;;;;;;5009934;28;20038;-82
2023/07/16 01:48:08;;;;;;;0.10;0.10;;;17.50;97.40;;;;;;5009040;28;20042;-81
2023/07/16 01:50:35;;;;;;;0.20;0.20;;;17.50;97.60;;;;;;5007774;28;20038;-82
2023/07/16 01:53:00;;;;;;;0.20;0.20;;;17.50;97.50;;;;;;5021122;28;20041;-82
2023/07/16 01:55:26;;;;;;;0.20;0.20;;;17.50;97.60;;;;;;5025970;28;20060;-82
2023/07/16 01:57:52;;;;;;;0.20;0.20;;;17.50;97.60;;;;;;5014319;28;20034;-81
2023/07/16 02:00:17;;;;;;;0.20;0.20;;;17.50;97.60;;;;;;5006264;28;20077;-81
2023/07/16 02:02:43;;;;;;;0.10;0.10;;;17.50;97.60;;;;;;5011505;28;20069;-83
2023/07/16 02:05:09;;;;;;;0.13;0.13;;;17.50;97.60;;;;;;5021919;28;20507;-81
2023/07/16 02:07:34;;;;;;;0.17;0.17;;;17.50;97.60;;;;;;5017752;28;20490;-81
2023/07/16 02:10:00;;;;;;;0.20;0.20;;;17.50;97.70;;;;;;5011955;28;20045;-80
2023/07/16 02:12:26;;;;;;;0.20;0.20;;;17.50;97.80;;;;;;5012145;28;20167;-82
2023/07/16 02:14:51;;;;;;;0.20;0.20;;;17.50;97.90;;;;;;5016379;28;20042;-82
2023/07/16 02:17:17;;;;;;;0.20;0.20;;;17.50;97.90;;;;;;5011767;28;20050;-81
2023/07/16 02:19:42;;;;;;;0.20;0.20;;;17.50;98.10;;;;;;5017826;28;20378;-81
2023/07/16 02:22:08;;;;;;;0.20;0.20;;;17.40;98.20;;;;;;5013562;28;20060;-81
2023/07/16 02:24:35;;;;;;;0.20;0.20;;;17.40;98.20;;;;;;5004533;28;20081;-81
2023/07/16 02:27:01;;;;;;;0.20;0.20;;;17.40;98.30;;;;;;5010209;28;20505;-82
2023/07/16 02:29:26;;;;;;;0.20;0.20;;;17.40;98.40;;;;;;5004035;28;20136;-81
2023/07/16 02:31:52;;;;;;;0.20;0.20;;;17.40;98.50;;;;;;5015913;28;20509;-81
2023/07/16 02:34:18;;;;;;;0.20;0.20;;;17.40;98.50;;;;;;5009092;28;20046;-83
2023/07/16 02:36:43;;;;;;;0.20;0.20;;;17.30;98.60;;;;;;5015158;28;20127;-81
2023/07/16 02:39:09;;;;;;;0.20;0.20;;;17.30;98.50;;;;;;5027712;28;20457;-80
2023/07/16 02:41:35;;;;;;;0.20;0.20;;;17.30;98.50;;;;;;5011617;28;20057;-85
2023/07/16 02:44:03;;;;;;;0.20;0.20;;;17.30;98.70;;;;;;5025501;28;20382;-82
2023/07/16 02:46:29;;;;;;;0.10;0.10;;;17.30;98.60;;;;;;5025837;28;20452;-82
2023/07/16 02:48:55;;;;;;;0.20;0.20;;;17.30;98.50;;;;;;5017044;28;20111;-83
2023/07/16 02:51:21;;;;;;;0.10;0.10;;;17.30;98.50;;;;;;5029743;28;20489;-82
2023/07/16 02:53:46;;;;;;;0.10;0.10;;;17.30;98.40;;;;;;5012569;28;20114;-84
2023/07/16 02:56:12;;;;;;;0.20;0.20;;;17.30;98.40;;;;;;5019410;28;20045;-85
2023/07/16 02:58:38;;;;;;;0.20;0.20;;;17.30;98.30;;;;;;5009360;28;20056;-83
2023/07/16 03:01:03;;;;;;;0.20;0.20;;;17.30;98.20;;;;;;5018867;28;20708;-83
2023/07/16 03:03:29;;;;;;;0.20;0.20;;;17.30;98.20;;;;;;5019697;28;20060;-83
2023/07/16 03:05:55;;;;;;;0.20;0.20;;;17.30;98.20;;;;;;5033737;28;20692;-83
2023/07/16 03:08:20;;;;;;;0.20;0.20;;;17.30;98.10;;;;;;5017902;28;20046;-82
2023/07/16 03:10:46;;;;;;;0.20;0.20;;;17.30;98.10;;;;;;5014736;28;20125;-82
2023/07/16 03:13:12;;;;;;;0.20;0.20;;;17.30;98.00;;;;;;5018499;28;20081;-83
2023/07/16 03:15:37;;;;;;;0.20;0.20;;;17.30;98.00;;;;;;5014284;28;20045;-81
2023/07/16 03:18:03;;;;;;;0.20;0.20;;;17.30;97.90;;;;;;5024150;28;20128;-82
2023/07/16 03:20:29;;;;;;;0.20;0.20;;;17.30;97.90;;;;;;5012886;28;20410;-84
2023/07/16 03:22:54;;;;;;;0.20;0.20;;;17.30;97.90;;;;;;5014388;28;20084;-81
2023/07/16 03:25:20;;;;;;;0.20;0.20;;;17.30;97.90;;;;;;5008643;28;20720;-82
2023/07/16 03:27:46;;;;;;;0.20;0.20;;;17.30;97.90;;;;;;5004677;28;20100;-80
2023/07/16 03:30:12;;;;;;;0.20;0.20;;;17.30;97.90;;;;;;5006849;28;20038;-82
2023/07/16 03:32:37;;;;;;;0.20;0.20;;;17.30;97.90;;;;;;5011316;28;20114;-82
2023/07/16 03:35:03;;;;;;;0.20;0.20;;;17.30;97.90;;;;;;5007122;28;20410;-85
2023/07/16 03:37:29;;;;;;;0.20;0.20;;;17.30;97.90;;;;;;5014947;28;20034;-82
2023/07/16 03:39:54;;;;;;;0.10;0.10;;;17.30;97.90;;;;;;5014262;28;20076;-83
2023/07/16 03:42:22;;;;;;;0.20;0.20;;;17.30;98.00;;;;;;5009039;28;20050;-83
2023/07/16 03:44:47;;;;;;;0.10;0.10;;;17.40;98.10;;;;;;5022981;28;20041;-83
2023/07/16 03:47:13;;;;;;;0.10;0.10;;;17.30;98.40;;;;;;5017994;28;20044;-83
2023/07/16 03:49:39;;;;;;;0.20;0.20;;;17.30;99.90;;;;;;5016177;28;20045;-84
2023/07/16 03:52:05;;;;;;;0.15;0.15;;;17.20;99.90;;;;;;5018005;28;20405;-82
2023/07/16 03:54:31;;;;;;;0.20;0.20;;;17.30;99.90;;;;;;5012395;28;20050;-84
2023/07/16 03:56:56;;;;;;;0.20;0.20;;;17.40;99.90;;;;;;5010487;28;20076;-83
2023/07/16 03:59:22;;;;;;;0.20;0.20;;;17.40;99.90;;;;;;5003411;28;20034;-84
2023/07/16 04:01:48;;;;;;;0.20;0.20;;;17.40;99.90;;;;;;5010186;28;20117;-84
2023/07/16 04:04:14;;;;;;;0.20;0.20;;;17.10;99.90;;;;;;5009732;28;20461;-82
2023/07/16 04:06:39;;;;;;;0.20;0.20;;;17.40;99.90;;;;;;5019575;28;20042;-83
2023/07/16 04:09:05;;;;;;;0.20;0.20;;;17.30;98.40;;;;;;5010047;28;20045;-82
2023/07/16 04:11:30;;;;;;;0.20;0.20;;;17.30;98.50;;;;;;5011481;28;20128;-82
2023/07/16 04:13:56;;;;;;;0.20;0.20;;;17.30;98.50;;;;;;5019326;28;20077;-82
2023/07/16 04:16:22;;;;;;;0.20;0.20;;;17.30;98.60;;;;;;5031977;28;20120;-82
2023/07/16 04:18:47;;;;;;;0.10;0.10;;;17.30;98.80;;;;;;5029126;28;20045;-81
2023/07/16 04:21:13;;;;;;;0.20;0.20;;;17.30;98.60;;;;;;5024126;28;20113;-84
2023/07/16 04:23:39;;;;;;;0.20;0.20;;;17.30;98.80;;;;;;5014868;28;20066;-82
2023/07/16 04:26:04;;;;;;;0.20;0.20;;;17.30;98.80;;;;;;5007681;28;20046;-82
2023/07/16 04:28:30;;;;;;;0.20;0.20;;;17.30;98.80;;;;;;5008471;28;20037;-81
2023/07/16 04:30:56;;;;;;;0.20;0.20;;;17.30;98.90;;;;;;5009351;28;20034;-82
2023/07/16 04:33:21;;;;;;;0.20;0.20;;;17.30;98.80;;;;;;5006948;28;20048;-83
2023/07/16 04:35:49;;;;;;;0.10;0.10;;;17.30;99.00;;;;;;5009217;28;20033;-81
2023/07/16 04:38:15;;;;;;;0.10;0.10;;;17.30;99.20;;;;;;5004475;28;20044;-81
2023/07/16 04:40:43;;;;;;;0.17;0.17;;;17.30;99.10;;;;;;5007413;28;20038;-81
2023/07/16 04:43:09;;;;;;;0.17;0.17;;;17.30;99.00;;;;;;5009673;28;20441;-81
2023/07/16 04:45:35;;;;;;;0.20;0.20;;;17.30;99.00;;;;;;5014246;28;20033;-83
2023/07/16 04:48:01;;;;;;;0.10;0.10;;;17.40;99.30;;;;;;5006824;28;20052;-84
2023/07/16 04:50:27;;;;;;;0.20;0.20;;;17.40;99.30;;;;;;5026185;28;20042;-81
2023/07/16 04:52:53;;;;;;;0.20;0.20;;;17.40;99.20;;;;;;5025862;28;20372;-83
2023/07/16 04:55:18;;;;;;;0.20;0.20;;;17.40;99.30;;;;;;5009280;28;20046;-82
2023/07/16 04:57:44;;;;;;;0.10;0.10;;;17.40;99.30;;;;;;5012093;28;20037;-84
2023/07/16 05:00:10;;;;;;;0.20;0.20;;;17.40;99.50;;;;;;5008128;28;20518;-82
2023/07/16 05:02:36;;;;;;;0.10;0.10;;;17.40;99.40;;;;;;5007087;28;20041;-82
2023/07/16 05:05:02;;;;;;;0.20;0.20;;;17.50;99.50;;;;;;5010555;28;20383;-84
2023/07/16 05:07:27;;;;;;;0.20;0.20;;;17.50;99.70;;;;;;5021260;28;20456;-83
2023/07/16 05:09:53;;;;;;;0.20;0.20;;;17.50;99.60;;;;;;5022401;28;20042;-82
2023/07/16 05:12:19;;;;;;;0.20;0.20;;;17.50;99.70;;;;;;5010957;28;20056;-81
2023/07/16 05:14:47;;;;;;;0.20;0.20;;;17.50;99.60;;;;;;5009028;28;20042;-82
2023/07/16 05:17:13;;;;;;;0.20;0.20;;;17.60;99.80;;;;;;5019019;28;20433;-83
2023/07/16 05:19:39;;;;;;;0.10;0.10;;;17.60;99.80;;;;;;5025869;28;20045;-82
2023/07/16 05:22:05;;;;;;;0.20;0.20;;;17.70;99.80;;;;;;5018663;28;20524;-81
2023/07/16 05:24:32;;;;;;;0.20;0.20;;;17.70;99.70;;;;;;5021371;28;20050;-85
2023/07/16 05:26:57;;;;;;;0.20;0.20;;;17.80;99.70;;;;;;5028847;28;20509;-81
2023/07/16 05:29:23;;;;;;;0.10;0.10;;;17.70;99.60;;;;;;5028884;28;20057;-81
2023/07/16 05:31:49;;;;;;;0.13;0.13;;;17.80;99.70;;;;;;5012389;28;20508;-83
2023/07/16 05:34:15;;;;;;;0.20;0.20;;;17.80;99.70;;;;;;5011613;28;20129;-82
2023/07/16 05:36:42;;;;;;;0.20;0.20;;;17.80;99.70;;;;;;5016205;28;20080;-82
2023/07/16 05:39:08;;;;;;;0.20;0.20;;;17.80;99.80;;;;;;5008887;28;20116;-83
2023/07/16 05:41:34;;;;;;;0.17;0.17;;;17.90;99.70;;;;;;5007959;28;20842;-82
2023/07/16 05:44:00;;;;;;;0.10;0.10;;;18.00;99.70;;;;;;5004644;28;20100;-82
2023/07/16 05:46:25;;;;;;;0.20;0.20;;;18.00;99.60;;;;;;5013963;28;20042;-82
2023/07/16 05:48:52;;;;;;;0.10;0.10;;;18.10;99.60;;;;;;5007595;28;20038;-82
2023/07/16 05:51:17;;;;;;;0.20;0.20;;;18.00;99.40;;;;;;5008370;28;20049;-81
2023/07/16 05:53:43;;;;;;;0.20;0.20;;;18.10;99.60;;;;;;5008066;28;20042;-82
2023/07/16 05:56:09;;;;;;;0.10;0.10;;;18.10;99.30;;;;;;5017208;28;20103;-83
2023/07/16 05:58:34;;;;;;;0.20;0.20;;;18.10;99.30;;;;;;5014517;28;20559;-83
2023/07/16 06:01:00;;;;;;;0.20;0.20;;;18.10;99.40;;;;;;5028858;28;20041;-84
2023/07/16 06:03:26;;;;;;;0.20;0.20;;;18.10;99.40;;;;;;5003907;28;20547;-82
2023/07/16 06:05:51;;;;;;;0.20;0.20;;;18.10;99.50;;;;;;5020579;28;20062;-81
2023/07/16 06:08:17;;;;;;;0.20;0.20;;;18.20;99.50;;;;;;5016677;28;20045;-83
2023/07/16 06:10:43;;;;;;;0.20;0.20;;;18.30;99.50;;;;;;5025421;28;20030;-83
2023/07/16 06:13:08;;;;;;;0.20;0.20;;;18.30;99.50;;;;;;5010332;28;20103;-82
2023/07/16 06:15:34;;;;;;;0.20;0.20;;;18.40;99.50;;;;;;5018669;28;20037;-82
2023/07/16 06:18:00;;;;;;;0.17;0.17;;;18.40;99.30;;;;;;5010200;28;20052;-82
2023/07/16 06:20:25;;;;;;;0.20;0.20;;;18.40;99.30;;;;;;5007053;28;20050;-83
2023/07/16 06:22:51;;;;;;;0.20;0.20;;;18.50;99.30;;;;;;5015020;28;20058;-84
2023/07/16 06:25:17;;;;;;;0.20;0.20;;;18.50;99.40;;;;;;5013413;28;20080;-81
2023/07/16 06:27:42;;;;;;;0.20;0.20;;;18.50;99.40;;;;;;5009145;28;20053;-77
2023/07/16 06:30:08;;;;;;;0.20;0.20;;;18.60;99.50;;;;;;5005832;28;20490;-78
2023/07/16 06:32:34;;;;;;;0.20;0.20;;;18.60;99.50;;;;;;5018441;28;20048;-78
2023/07/16 06:35:00;;;;;;;0.20;0.20;;;18.70;99.40;;;;;;5018198;28;20111;-77
2023/07/16 06:37:25;;;;;;;0.17;0.17;;;18.60;99.30;;;;;;5029576;28;20037;-79
2023/07/16 06:39:51;;;;;;;0.20;0.20;;;18.70;99.40;;;;;;5013353;28;20081;-79
2023/07/16 06:42:17;;;;;;;0.20;0.20;;;18.60;99.30;;;;;;5008791;28;20038;-79
2023/07/16 06:44:42;;;;;;;0.10;0.10;;;18.60;99.40;;;;;;5017045;28;20111;-79
2023/07/16 06:47:08;;;;;;;0.20;0.20;;;18.60;99.50;;;;;;5001942;28;20042;-79
2023/07/16 06:49:34;;;;;;;0.20;0.20;;;18.60;99.50;;;;;;5013586;28;20088;-79
2023/07/16 06:52:02;;;;;;;0.20;0.20;;;18.50;99.50;;;;;;5021174;28;20123;-78
2023/07/16 06:54:28;;;;;;;0.20;0.20;;;18.60;99.50;;;;;;5015417;28;20521;-77
2023/07/16 06:56:54;;;;;;;0.20;0.20;;;18.60;99.50;;;;;;5007738;28;20037;-79
2023/07/16 06:59:20;;;;;;;0.15;0.15;;;18.60;99.50;;;;;;5007976;28;20855;-77
2023/07/16 07:01:48;;;;;;;0.20;0.20;;;18.70;99.90;;;;;;5003554;28;20042;-77
2023/07/16 07:04:14;;;;;;;0.20;0.20;;;18.70;99.90;;;;;;5010447;28;20065;-77
2023/07/16 07:06:40;;;;;;;0.10;0.10;;;18.70;99.90;;;;;;5011905;28;20088;-77
2023/07/16 07:09:05;;;;;;;0.20;0.20;;;18.90;99.90;;;;;;5007929;28;20445;-77
2023/07/16 07:11:31;;;;;;;0.20;0.20;;;18.70;99.90;;;;;;5009170;28;20045;-78
2023/07/16 07:13:57;;;;;;;0.20;0.20;;;19.00;99.90;;;;;;5006597;28;20103;-78
2023/07/16 07:16:23;;;;;;;0.20;0.20;;;18.90;99.90;;;;;;5010663;28;20042;-78
2023/07/16 07:18:49;;;;;;;0.20;0.20;;;19.00;99.90;;;;;;5009785;28;20441;-78
2023/07/16 07:21:15;;;;;;;0.20;0.20;;;19.20;99.90;;;;;;5009509;28;20038;-77
2023/07/16 07:23:40;;;;;;;0.10;0.10;;;19.20;99.90;;;;;;5008354;28;20070;-78
2023/07/16 07:26:06;;;;;;;0.13;0.13;;;19.40;99.90;;;;;;5009209;28;20040;-76
2023/07/16 07:28:32;;;;;;;0.20;0.20;;;19.30;99.90;;;;;;5004417;28;20048;-78
2023/07/16 07:30:59;;;;;;;0.10;0.10;;;19.40;99.90;;;;;;5031328;28;20049;-78
2023/07/16 07:33:24;;;;;;;0.20;0.20;;;19.30;99.90;;;;;;5015420;28;20042;-77
2023/07/16 07:35:55;;;;;;;0.20;0.20;;;19.30;98.50;;;;;;5012123;28;20116;-78
2023/07/16 07:38:20;;;;;;;0.20;0.20;;;19.30;98.70;;;;;;5013223;28;20060;-79
2023/07/16 07:40:46;;;;;;;0.20;0.20;;;19.60;98.90;;;;;;5011887;28;20033;-78
2023/07/16 07:43:11;;;;;;;0.20;0.20;;;19.30;98.50;;;;;;5014599;28;20829;-78
2023/07/16 07:45:37;;;;;;;0.20;0.20;;;19.20;98.50;;;;;;5012633;28;20041;-77
2023/07/16 07:48:03;;;;;;;0.20;0.20;;;19.10;98.40;;;;;;5008379;28;20128;-78
2023/07/16 07:50:29;;;;;;;0.20;0.20;;;19.10;98.40;;;;;;5029971;28;20038;-78
2023/07/16 07:52:54;;;;;;;0.10;0.10;;;19.10;98.50;;;;;;4996987;28;20408;-78
2023/07/16 07:55:20;;;;;;;0.20;0.20;;;19.10;98.40;;;;;;5015540;28;20049;-78
2023/07/16 07:57:46;;;;;;;0.20;0.20;;;19.00;98.40;;;;;;5008829;28;20053;-77
2023/07/16 08:00:12;;;;;;;0.20;0.20;;;19.10;98.30;;;;;;5005966;28;20038;-77
2023/07/16 08:02:38;;;;;;;0.20;0.20;;;19.00;98.20;;;;;;5016021;28;20552;-79
2023/07/16 08:05:04;;;;;;;0.20;0.20;;;19.00;98.00;;;;;;5009215;28;20046;-77
2023/07/16 08:07:30;;;;;;;0.20;0.20;;;19.00;98.10;;;;;;4996973;28;20504;-78
2023/07/16 08:09:56;;;;;;;0.20;0.20;;;19.00;98.10;;;;;;5004001;28;20051;-78
2023/07/16 08:12:21;;;;;;;0.20;0.20;;;19.00;98.10;;;;;;5012362;28;20052;-78
2023/07/16 08:14:48;;;;;;;0.10;0.10;;;19.00;98.30;;;;;;5018339;28;20042;-78
2023/07/16 08:17:13;;;;;;;0.20;0.20;;;19.10;98.40;;;;;;5011737;28;20041;-77
2023/07/16 08:19:39;;;;;;;0.20;0.20;;;19.20;98.60;;;;;;5013620;28;20042;-78
2023/07/16 08:22:05;;;;;;;0.10;0.10;;;19.20;98.60;;;;;;5000074;28;20402;-78
2023/07/16 08:24:31;;;;;;;0.20;0.20;;;19.30;99.00;;;;;;5008122;28;20525;-77
2023/07/16 08:26:57;;;;;;;0.15;0.15;;;19.30;99.10;;;;;;5008467;28;20042;-77
2023/07/16 08:29:22;;;;;;;0.20;0.20;;;19.20;97.90;;;;;;5004430;28;20038;-79
2023/07/16 08:31:48;;;;;;;0.20;0.20;;;19.20;97.50;;;;;;5012608;28;20042;-79
2023/07/16 08:34:14;;;;;;;0.10;0.10;;;19.20;98.10;;;;;;5025526;28;20777;-78
2023/07/16 08:36:39;;;;;;;0.20;0.20;;;19.10;98.60;;;;;;5020563;28;20041;-78
2023/07/16 08:39:05;;;;;;;0.10;0.10;;;19.00;98.90;;;;;;5020540;28;20405;-79
2023/07/16 08:41:31;;;;;;;0.10;0.10;;;19.00;99.30;;;;;;5013180;28;20077;-79
2023/07/16 08:43:57;;;;;;;0.20;0.20;;;18.90;99.40;;;;;;5006980;28;20081;-79
2023/07/16 08:46:23;;;;;;;0.20;0.20;;;18.80;99.80;;;;;;5009406;28;20049;-78
2023/07/16 08:48:49;;;;;;;0.20;0.20;;;18.70;99.90;;;;;;5008551;28;20559;-79
2023/07/16 08:51:16;;;;;;;0.10;0.10;;;18.80;99.90;;;;;;5008154;28;20049;-78
2023/07/16 08:53:42;;;;;;;0.20;0.20;;;18.80;99.90;;;;;;5010090;28;20038;-78
2023/07/16 08:56:08;;;;;;;0.15;0.15;;;18.90;99.90;;;;;;5013698;28;20057;-77
2023/07/16 08:58:35;;;;;;;0.20;0.20;;;18.80;99.90;;;;;;5019904;28;20489;-79
2023/07/16 09:01:01;;;;;;;0.10;0.10;;;18.90;99.90;;;;;;5021174;28;20095;-79
2023/07/16 09:03:27;;;;;;;0.20;0.20;;;18.90;99.90;;;;;;5006715;28;20045;-78
2023/07/16 09:05:54;;;;;;;0.20;0.20;;;19.10;99.90;;;;;;5022678;28;20033;-78
2023/07/16 09:08:20;;;;;;;0.13;0.13;;;19.10;99.90;;;;;;5008048;28;20505;-79
2023/07/16 09:10:54;;;;;;;0.20;0.20;;;19.20;99.80;;;;;;5002211;28;20069;-79
2023/07/16 09:13:19;;;;;;;0.20;0.20;;;19.30;99.50;;;;;;5008903;28;20046;-79
2023/07/16 09:15:51;;;;;;;0.20;0.20;;;19.40;99.40;;;;;;5007489;28;20101;-79
2023/07/16 09:18:25;;;;;;;0.20;0.20;;;19.50;99.00;;;;;;5005554;28;20038;-78
2023/07/16 09:20:55;;;;;;;0.10;0.10;;;19.60;98.80;;;;;;5007357;28;20490;-78
2023/07/16 09:23:24;;;;;;;0.20;0.20;;;19.70;98.80;;;;;;5005493;28;20065;-79
2023/07/16 09:25:50;;;;;;;0.20;0.20;;;19.80;98.60;;;;;;5008869;28;20050;-78
2023/07/16 09:28:18;;;;;;;0.20;0.20;;;19.80;98.40;;;;;;5007319;28;20045;-79
2023/07/16 09:30:44;;;;;;;0.20;0.20;;;19.90;97.80;;;;;;5023612;28;20095;-78
2023/07/16 09:33:15;;;;;;;0.20;0.20;;;20.00;97.50;;;;;;5023715;28;20038;-79
2023/07/16 09:35:41;;;;;;;0.15;0.15;;;20.00;97.20;;;;;;5018789;28;20455;-80
2023/07/16 09:38:09;;;;;;;0.20;0.20;;;20.00;97.20;;;;;;5006160;28;20104;-81
2023/07/16 09:40:36;;;;;;;0.20;0.20;;;20.00;97.10;;;;;;5008979;28;20060;-79
2023/07/16 09:43:03;;;;;;;0.20;0.20;;;20.10;97.20;;;;;;5008561;28;20046;-78
2023/07/16 09:45:28;;;;;;;0.20;0.20;;;20.10;97.10;;;;;;5010885;28;20129;-76
2023/07/16 09:47:54;;;;;;;0.20;0.20;;;20.10;97.00;;;;;;5006536;28;20723;-76
2023/07/16 09:50:23;;;;;;;0.20;0.20;;;20.20;97.40;;;;;;5007384;28;20469;-78
2023/07/16 09:52:50;;;;;;;0.20;0.20;;;20.30;97.20;;;;;;5009147;28;20172;-78
2023/07/16 09:55:18;;;;;;;0.20;0.20;;;20.50;97.10;;;;;;5010842;28;20117;-77
2023/07/16 09:57:45;;;;;;;0.20;0.20;;;20.60;97.30;;;;;;5004505;28;20485;-77
2023/07/16 10:00:13;;;;;;;0.20;0.20;;;20.70;96.70;;;;;;5005244;28;20056;-77
2023/07/16 10:02:40;;;;;;;0.20;0.20;;;20.80;96.60;;;;;;5005899;28;20093;-77
2023/07/16 10:05:17;;;;;;;0.20;0.20;;;20.80;96.30;;;;;;5006735;28;20125;-76
2023/07/16 10:07:49;;;;;;;0.20;0.20;;;20.70;95.80;;;;;;5000540;28;20136;-76
2023/07/16 10:10:17;;;;;;;0.17;0.17;;;20.70;95.90;;;;;;5010704;28;20046;-76
2023/07/16 10:12:54;;;;;;;0.20;0.20;;;20.70;96.00;;;;;;5017402;28;20106;-77
2023/07/16 10:15:29;;;;;;;0.20;0.20;;;20.70;96.20;;;;;;5008819;28;20445;-77
2023/07/16 10:17:55;;;;;;;0.15;0.15;;;20.70;95.50;;;;;;5007373;28;20361;-76
2023/07/16 10:20:34;;;;;;;0.20;0.20;;;20.70;95.60;;;;;;5010497;28;20092;-77
2023/07/16 10:23:14;;;;;;;0.20;0.20;;;20.80;95.50;;;;;;5024452;28;20489;-78
2023/07/16 10:25:41;;;;;;;0.20;0.20;;;20.80;95.50;;;;;;5007344;28;20034;-76
2023/07/16 10:28:07;;;;;;;0.20;0.20;;;20.80;95.30;;;;;;5003044;28;20046;-77
2023/07/16 10:30:34;;;;;;;0.20;0.20;;;20.80;95.30;;;;;;5009506;28;20046;-78
2023/07/16 10:33:10;;;;;;;0.20;0.20;;;20.90;94.90;;;;;;5005533;28;20474;-77
2023/07/16 10:35:41;;;;;;;0.20;0.20;;;20.90;95.30;;;;;;5002964;28;20042;-77
2023/07/16 10:38:07;;;;;;;0.20;0.20;;;21.00;95.40;;;;;;5009091;28;20493;-76
2023/07/16 10:40:33;;;;;;;0.20;0.20;;;21.10;95.30;;;;;;5007237;28;20128;-76
2023/07/16 10:42:58;;;;;;;0.20;0.20;;;21.10;94.60;;;;;;5009632;28;20042;-77
2023/07/16 10:45:24;;;;;;;0.20;0.20;;;21.10;94.30;;;;;;5009514;28;20052;-78
2023/07/16 10:47:54;;;;;;;0.15;0.15;;;21.00;94.30;;;;;;5011241;28;20125;-77
2023/07/16 10:50:22;;;;;;;0.20;0.20;;;20.90;94.00;;;;;;5011018;28;20675;-77
2023/07/16 10:52:54;;;;;;;0.20;0.20;;;20.90;94.40;;;;;;5009485;28;20096;-78
2023/07/16 10:55:20;;;;;;;0.13;0.13;;;20.80;94.40;;;;;;5009072;28;20041;-77
2023/07/16 10:57:50;;;;;;;0.20;0.20;;;20.90;94.80;;;;;;5008733;28;20077;-76
2023/07/16 11:00:17;;;;;;;0.20;0.20;;;20.90;94.80;;;;;;5010198;28;20053;-77
2023/07/16 11:02:44;;;;;;;0.20;0.20;;;21.00;94.90;;;;;;5010100;28;20044;-78
2023/07/16 11:05:11;;;;;;;0.20;0.20;;;21.10;94.80;;;;;;5007291;28;20069;-78
2023/07/16 11:07:37;;;;;;;0.20;0.20;;;21.10;94.40;;;;;;4998843;28;20045;-76
2023/07/16 11:10:03;;;;;;;0.20;0.20;;;21.10;94.60;;;;;;5004756;28;20038;-77
2023/07/16 11:12:29;;;;;;;0.20;0.20;;;21.30;94.40;;;;;;4998076;28;20089;-77
2023/07/16 11:14:56;;;;;;;0.20;0.20;;;21.30;94.50;;;;;;4997798;28;20042;-77
2023/07/16 11:17:24;;;;;;;0.20;0.20;;;21.40;94.40;;;;;;5005206;28;20052;-77
2023/07/16 11:19:51;;;;;;;0.20;0.20;;;21.40;94.00;;;;;;5009822;28;20122;-77
2023/07/16 11:22:18;;;;;;;0.20;0.20;;;21.40;93.70;;;;;;5009422;28;20266;-77
2023/07/16 11:24:49;;;;;;;0.20;0.20;;;21.50;93.80;;;;;;5009720;28;20049;-77
2023/07/16 11:27:16;;;;;;;0.20;0.20;;;21.50;93.60;;;;;;5008878;28;20347;-77
2023/07/16 11:29:56;;;;;;;0.20;0.20;;;21.50;93.60;;;;;;5006226;28;20096;-79
2023/07/16 11:32:35;;;;;;;0.20;0.20;;;21.40;93.60;;;;;;5011498;28;20128;-77
2023/07/16 11:35:07;;;;;;;0.20;0.20;;;21.40;93.40;;;;;;5006839;28;20382;-78
2023/07/16 11:37:35;;;;;;;0.20;0.20;;;21.30;93.60;;;;;;5009179;28;20046;-78
2023/07/16 11:40:06;;;;;;;0.20;0.20;;;21.20;93.60;;;;;;5001662;28;20056;-78
2023/07/16 11:42:38;;;;;;;0.20;0.20;;;21.10;93.60;;;;;;5009870;28;20121;-77
2023/07/16 11:45:14;;;;;;;0.20;0.20;;;21.10;93.90;;;;;;5009330;28;20084;-77
2023/07/16 11:47:43;;;;;;;0.20;0.20;;;21.10;93.90;;;;;;5009362;28;20042;-77
2023/07/16 11:50:08;;;;;;;0.20;0.20;;;21.30;94.20;;;;;;5007667;28;20188;-78
2023/07/16 11:52:34;;;;;;;0.20;0.20;;;21.40;94.10;;;;;;5010383;28;20503;-77
2023/07/16 11:55:00;;;;;;;0.20;0.20;;;21.50;93.80;;;;;;5004221;28;20401;-78
2023/07/16 11:57:26;;;;;;;0.20;0.20;;;21.50;93.50;;;;;;5006540;28;20696;-78
2023/07/16 11:59:52;;;;;;;0.20;0.20;;;21.40;93.50;;;;;;5006638;28;20410;-76
2023/07/16 12:02:17;;;;;;;0.20;0.20;;;21.40;93.30;;;;;;5009801;28;20049;-75
2023/07/16 12:04:43;;;;;;;0.20;0.20;;;21.30;93.20;;;;;;5009204;28;20067;-77
2023/07/16 12:07:09;;;;;;;0.20;0.20;;;21.20;93.50;;;;;;5005011;28;20058;-77
2023/07/16 12:09:35;;;;;;;0.20;0.20;;;21.10;93.70;;;;;;5006320;28;20493;-78
2023/07/16 12:12:01;;;;;;;0.10;0.10;;;21.10;93.80;;;;;;5006427;28;20504;-78
2023/07/16 12:14:27;;;;;;;0.20;0.20;;;21.00;94.00;;;;;;5003472;28;20054;-79
2023/07/16 12:16:52;;;;;;;0.20;0.20;;;21.00;94.20;;;;;;5010485;28;20504;-78
2023/07/16 12:19:18;;;;;;;0.20;0.20;;;20.90;94.10;;;;;;5007447;28;20541;-78
2023/07/16 12:21:44;;;;;;;0.20;0.20;;;20.90;94.30;;;;;;5009264;28;20084;-78
2023/07/16 12:24:10;;;;;;;0.10;0.10;;;21.10;94.50;;;;;;5001609;28;20053;-78
2023/07/16 12:26:37;;;;;;;0.20;0.20;;;21.10;94.50;;;;;;5002124;28;20052;-78
2023/07/16 12:29:03;;;;;;;0.20;0.20;;;21.20;94.50;;;;;;5001776;28;20096;-79
2023/07/16 12:31:32;;;;;;;0.20;0.20;;;21.20;94.50;;;;;;5002694;28;20520;-79
2023/07/16 12:34:02;;;;;;;0.20;0.20;;;21.20;94.60;;;;;;5000687;28;20057;-78
2023/07/16 12:36:28;;;;;;;0.20;0.20;;;21.10;95.00;;;;;;5005990;28;20050;-77
2023/07/16 12:38:54;;;;;;;0.20;0.20;;;21.20;95.60;;;;;;4997253;28;20046;-78
2023/07/16 12:41:19;;;;;;;0.20;0.20;;;21.30;95.90;;;;;;4999948;28;20038;-78
2023/07/16 12:43:46;;;;;;;0.20;0.20;;;21.40;95.90;;;;;;5009645;28;20092;-78
2023/07/16 12:46:12;;;;;;;0.20;0.20;;;21.40;95.80;;;;;;5008280;28;20129;-79